createdAt,value
2023-01-19T00:00:15.692Z,101158.27
2023-01-19T00:02:47.753Z,101158.98
2023-01-19T00:04:55.275Z,101161.35
2023-01-19T00:07:05.711Z,101163.68
2023-01-19T00:09:15.544Z,101162.52
2023-01-19T00:11:25.231Z,101158.59
2023-01-19T00:13:35.711Z,101157.75
2023-01-19T00:15:45.646Z,101161.17
2023-01-19T00:17:55.346Z,101162.59
2023-01-19T00:20:05.539Z,101163.33
2023-01-19T00:22:15.957Z,101170.61
2023-01-19T00:24:27.473Z,101173.47
2023-01-19T00:26:40.828Z,101181.14
2023-01-19T00:28:51.528Z,101187.34
2023-01-19T00:31:01.292Z,101186.02
2023-01-19T00:33:11.508Z,101188.55
2023-01-19T00:35:21.614Z,101190.93
2023-01-19T00:37:31.457Z,101189.55
2023-01-19T00:39:41.181Z,101191.15
2023-01-19T00:42:07.873Z,101197.36
2023-01-19T00:44:18.061Z,101202.03
2023-01-19T00:46:27.821Z,101205.64
2023-01-19T00:48:37.675Z,101213.16
2023-01-19T00:50:48.075Z,101215.16
2023-01-19T00:53:01.677Z,101217.46
2023-01-19T00:55:14.033Z,101219.05
2023-01-19T00:57:23.981Z,101224.78
2023-01-19T00:59:33.910Z,101226.67
2023-01-19T01:01:46.227Z,101228.17
2023-01-19T01:03:57.575Z,101227.91
2023-01-19T01:06:08.763Z,101232.87
2023-01-19T01:08:18.795Z,101236.80
2023-01-19T01:10:30.999Z,101237.17
2023-01-19T01:12:41.614Z,101242.00
2023-01-19T01:15:06.044Z,101246.16
2023-01-19T01:17:16.085Z,101246.30
2023-01-19T01:19:26.693Z,101247.12
2023-01-19T01:21:37.684Z,101247.82
2023-01-19T01:23:48.109Z,101250.96
2023-01-19T01:25:58.079Z,101254.42
2023-01-19T01:28:09.273Z,101260.75
2023-01-19T01:30:20.141Z,101260.77
2023-01-19T01:32:30.154Z,101265.27
2023-01-19T01:34:40.212Z,101263.59
2023-01-19T01:36:50.069Z,101268.17
2023-01-19T01:39:00.248Z,101269.02
2023-01-19T01:41:10.701Z,101267.78
2023-01-19T01:43:22.092Z,101269.81
2023-01-19T01:45:38.704Z,101267.95
2023-01-19T01:47:51.582Z,101274.09
2023-01-19T01:50:08.496Z,101272.61
2023-01-19T01:52:19.997Z,101274.09
2023-01-19T01:54:32.991Z,101279.38
2023-01-19T01:56:44.630Z,101280.58
2023-01-19T01:58:54.807Z,101277.17
2023-01-19T02:01:22.630Z,101279.13
2023-01-19T02:03:33.573Z,101280.76
2023-01-19T02:05:44.108Z,101285.09
2023-01-19T02:08:17.752Z,101291.77
2023-01-19T02:10:45.009Z,101297.50
2023-01-19T02:13:12.224Z,101300.05
2023-01-19T02:15:24.074Z,101302.61
2023-01-19T02:17:34.187Z,101302.16
2023-01-19T02:19:46.893Z,101302.80
2023-01-19T02:22:01.699Z,101304.81
2023-01-19T02:24:12.586Z,101308.72
2023-01-19T02:26:25.494Z,101309.84
2023-01-19T02:28:36.276Z,101316.49
2023-01-19T02:30:46.691Z,101318.81
2023-01-19T02:32:56.661Z,101323.51
2023-01-19T02:35:07.006Z,101328.45
2023-01-19T02:37:18.934Z,101334.73
2023-01-19T02:39:33.775Z,101334.85
2023-01-19T02:41:47.317Z,101339.23
2023-01-19T02:43:59.060Z,101344.96
2023-01-19T02:46:07.308Z,101342.30
2023-01-19T02:48:18.573Z,101346.41
2023-01-19T02:50:47.198Z,101349.27
2023-01-19T02:53:02.266Z,101358.30
2023-01-19T02:55:18.729Z,101358.83
2023-01-19T02:57:54.282Z,101361.03
2023-01-19T03:00:15.192Z,101364.31
2023-01-19T03:02:35.039Z,101364.69
2023-01-19T03:05:00.550Z,101366.92
2023-01-19T03:07:13.582Z,101369.29
2023-01-19T03:09:30.827Z,101375.63
2023-01-19T03:11:46.326Z,101376.07
2023-01-19T03:14:01.929Z,101381.81
2023-01-19T03:16:18.201Z,101390.67
2023-01-19T03:18:31.039Z,101396.66
2023-01-19T03:20:42.241Z,101400.42
2023-01-19T03:22:55.697Z,101405.31
2023-01-19T03:25:06.385Z,101413.91
2023-01-19T03:27:20.322Z,101417.45
2023-01-19T03:29:35.238Z,101418.98
2023-01-19T03:31:48.129Z,101423.90
2023-01-19T03:34:02.888Z,101427.98
2023-01-19T03:36:17.951Z,101424.84
2023-01-19T03:38:30.636Z,101428.77
2023-01-19T03:40:41.266Z,101432.26
2023-01-19T03:42:52.263Z,101431.71
2023-01-19T03:45:04.901Z,101435.10
2023-01-19T03:47:16.483Z,101435.08
2023-01-19T03:49:26.989Z,101440.52
2023-01-19T03:51:40.676Z,101443.84
2023-01-19T03:53:51.198Z,101443.42
2023-01-19T03:56:01.355Z,101447.37
2023-01-19T03:58:11.539Z,101438.84
2023-01-19T04:00:22.873Z,101443.25
2023-01-19T04:02:33.204Z,101446.11
2023-01-19T04:04:43.203Z,101441.70
2023-01-19T04:06:53.407Z,101439.23
2023-01-19T04:09:03.218Z,101443.58
2023-01-19T04:11:13.780Z,101452.20
2023-01-19T04:13:23.610Z,101458.55
2023-01-19T04:15:34.322Z,101456.64
2023-01-19T04:17:44.712Z,101457.56
2023-01-19T04:19:54.392Z,101459.45
2023-01-19T04:22:05.232Z,101454.23
2023-01-19T04:24:15.181Z,101453.67
2023-01-19T04:26:25.377Z,101454.39
2023-01-19T04:28:37.479Z,101461.64
2023-01-19T04:30:47.591Z,101466.86
2023-01-19T04:33:00.787Z,101468.98
2023-01-19T04:35:11.879Z,101473.42
2023-01-19T04:37:21.998Z,101475.86
2023-01-19T04:39:32.121Z,101478.13
2023-01-19T04:41:42.131Z,101480.85
2023-01-19T04:43:52.111Z,101481.95
2023-01-19T04:46:02.104Z,101483.73
2023-01-19T04:48:12.147Z,101485.12
2023-01-19T04:50:22.535Z,101485.71
2023-01-19T04:52:37.758Z,101488.50
2023-01-19T04:54:48.056Z,101482.64
2023-01-19T04:56:58.307Z,101487.53
2023-01-19T04:59:08.744Z,101492.29
2023-01-19T05:01:21.372Z,101495.58
2023-01-19T05:03:31.541Z,101496.27
2023-01-19T05:05:41.730Z,101500.19
2023-01-19T05:07:51.908Z,101503.13
2023-01-19T05:10:01.954Z,101506.52
2023-01-19T05:12:12.337Z,101504.48
2023-01-19T05:14:22.697Z,101509.48
2023-01-19T05:16:32.746Z,101508.54
2023-01-19T05:18:42.581Z,101513.50
2023-01-19T05:20:52.427Z,101513.67
2023-01-19T05:23:02.681Z,101519.29
2023-01-19T05:25:13.948Z,101523.53
2023-01-19T05:27:23.829Z,101526.58
2023-01-19T05:29:33.689Z,101522.77
2023-01-19T05:31:44.952Z,101526.30
2023-01-19T05:33:55.108Z,101526.27
2023-01-19T05:36:05.965Z,101528.76
2023-01-19T05:38:18.817Z,101537.61
2023-01-19T05:40:30.839Z,101537.57
2023-01-19T05:42:41.106Z,101542.30
2023-01-19T05:44:51.129Z,101550.41
2023-01-19T05:47:01.169Z,101553.89
2023-01-19T05:49:11.066Z,101553.02
2023-01-19T05:51:21.286Z,101560.14
2023-01-19T05:53:31.374Z,101566.39
2023-01-19T05:55:41.322Z,101571.59
2023-01-19T05:57:51.363Z,101572.82
2023-01-19T06:00:01.450Z,101575.80
2023-01-19T06:02:19.283Z,101573.42
2023-01-19T06:04:29.484Z,101580.85
2023-01-19T06:06:39.350Z,101582.47
2023-01-19T06:08:49.456Z,101593.46
2023-01-19T06:10:59.424Z,101600.01
2023-01-19T06:13:11.569Z,101602.02
2023-01-19T06:15:21.758Z,101607.30
2023-01-19T06:17:33.989Z,101610.88
2023-01-19T06:19:44.472Z,101615.23
2023-01-19T06:21:54.495Z,101618.42
2023-01-19T06:24:04.306Z,101618.73
2023-01-19T06:26:14.110Z,101621.86
2023-01-19T06:28:24.126Z,101621.43
2023-01-19T06:30:33.779Z,101626.58
2023-01-19T06:32:43.887Z,101633.23
2023-01-19T06:34:54.136Z,101632.52
2023-01-19T06:37:04.305Z,101634.40
2023-01-19T06:39:14.861Z,101641.04
2023-01-19T06:41:24.727Z,101646.48
2023-01-19T06:43:34.937Z,101652.20
2023-01-19T06:45:46.109Z,101655.57
2023-01-19T06:47:56.615Z,101659.59
2023-01-19T06:50:06.578Z,101657.64
2023-01-19T06:52:18.760Z,101661.01
2023-01-19T06:54:28.715Z,101663.84
2023-01-19T06:56:38.650Z,101670.76
2023-01-19T06:58:50.835Z,101669.84
2023-01-19T07:01:05.262Z,101668.71
2023-01-19T07:03:21.014Z,101673.67
2023-01-19T07:05:31.062Z,101676.26
2023-01-19T07:07:40.966Z,101677.98
2023-01-19T07:09:53.875Z,101675.52
2023-01-19T07:12:04.036Z,101680.05
2023-01-19T07:14:14.212Z,101682.51
2023-01-19T07:16:25.426Z,101690.40
2023-01-19T07:18:35.299Z,101691.08
2023-01-19T07:20:49.575Z,101696.52
2023-01-19T07:23:01.289Z,101703.44
2023-01-19T07:25:12.234Z,101710.56
2023-01-19T07:27:23.191Z,101715.70
2023-01-19T07:29:33.168Z,101723.06
2023-01-19T07:31:43.167Z,101726.51
2023-01-19T07:33:53.827Z,101727.00
2023-01-19T07:36:03.506Z,101727.16
2023-01-19T07:38:13.331Z,101730.50
2023-01-19T07:40:24.055Z,101733.69
2023-01-19T07:42:34.175Z,101732.05
2023-01-19T07:44:43.699Z,101733.57
2023-01-19T07:46:53.393Z,101737.23
2023-01-19T07:49:03.090Z,101738.48
2023-01-19T07:51:18.239Z,101740.56
2023-01-19T07:53:28.322Z,101739.38
2023-01-19T07:55:38.573Z,101744.77
2023-01-19T07:57:49.967Z,101746.89
2023-01-19T07:59:59.737Z,101743.79
2023-01-19T08:02:11.267Z,101748.30
2023-01-19T08:04:21.896Z,101744.98
2023-01-19T08:06:35.492Z,101747.88
2023-01-19T08:08:45.576Z,101750.47
2023-01-19T08:10:58.116Z,101749.00
2023-01-19T08:13:07.909Z,101749.91
2023-01-19T08:15:17.672Z,101754.08
2023-01-19T08:17:27.616Z,101753.04
2023-01-19T08:19:37.257Z,101757.16
2023-01-19T08:21:47.832Z,101762.20
2023-01-19T08:24:01.524Z,101765.34
2023-01-19T08:26:27.777Z,101768.27
2023-01-19T08:28:37.715Z,101773.48
2023-01-19T08:30:54.421Z,101777.70
2023-01-19T08:33:08.488Z,101776.91
2023-01-19T08:35:19.000Z,101780.58
2023-01-19T08:37:29.090Z,101781.31
2023-01-19T08:39:39.050Z,101786.07
2023-01-19T08:41:49.008Z,101786.12
2023-01-19T08:43:58.823Z,101783.70
2023-01-19T08:46:09.103Z,101785.20
2023-01-19T08:48:20.301Z,101785.40
2023-01-19T08:50:31.279Z,101785.89
2023-01-19T08:52:41.607Z,101793.86
2023-01-19T08:54:51.422Z,101793.42
2023-01-19T08:57:01.315Z,101797.33
2023-01-19T08:59:12.997Z,101799.38
2023-01-19T09:01:24.396Z,101802.92
2023-01-19T09:03:34.313Z,101806.45
2023-01-19T09:05:44.437Z,101810.52
2023-01-19T09:07:54.313Z,101808.42
2023-01-19T09:10:04.219Z,101807.59
2023-01-19T09:12:14.077Z,101808.97
2023-01-19T09:14:23.680Z,101812.02
2023-01-19T09:16:33.808Z,101816.98
2023-01-19T09:18:45.542Z,101816.44
2023-01-19T09:20:58.985Z,101819.82
2023-01-19T09:23:11.030Z,101818.48
2023-01-19T09:25:18.923Z,101824.66
2023-01-19T09:27:29.020Z,101829.55
2023-01-19T09:29:38.871Z,101833.52
2023-01-19T09:31:49.244Z,101840.10
2023-01-19T09:33:59.102Z,101847.27
2023-01-19T09:36:10.223Z,101846.95
2023-01-19T09:38:20.902Z,101846.52
2023-01-19T09:40:31.931Z,101845.42
2023-01-19T09:42:46.384Z,101847.04
2023-01-19T09:44:56.297Z,101849.17
2023-01-19T09:47:15.621Z,101850.64
2023-01-19T09:49:31.073Z,101851.36
2023-01-19T09:51:44.292Z,101855.37
2023-01-19T09:54:06.492Z,101859.01
2023-01-19T09:56:16.262Z,101864.66
2023-01-19T09:58:26.701Z,101864.57
2023-01-19T10:00:36.431Z,101868.45
2023-01-19T10:02:50.453Z,101874.05
2023-01-19T10:05:04.057Z,101875.09
2023-01-19T10:07:25.535Z,101879.20
2023-01-19T10:09:38.892Z,101880.88
2023-01-19T10:11:53.722Z,101883.55
2023-01-19T10:14:05.619Z,101883.60
2023-01-19T10:16:26.821Z,101889.02
2023-01-19T10:18:47.867Z,101892.11
2023-01-19T10:21:05.592Z,101901.88
2023-01-19T10:23:27.315Z,101903.60
2023-01-19T10:25:37.362Z,101909.97
2023-01-19T10:27:48.444Z,101918.47
2023-01-19T10:33:40.403Z,101919.67
2023-01-19T10:35:50.863Z,101922.20
2023-01-19T10:38:03.920Z,101924.42
2023-01-19T10:40:27.779Z,101925.63
2023-01-19T10:42:38.160Z,101927.69
2023-01-19T10:44:51.113Z,101929.37
2023-01-19T10:47:02.589Z,101933.45
2023-01-19T10:49:28.516Z,101933.35
2023-01-19T10:51:48.596Z,101935.46
2023-01-19T10:54:06.742Z,101944.42
2023-01-19T10:56:23.804Z,101945.46
2023-01-19T10:58:36.793Z,101951.20
2023-01-19T11:00:47.258Z,101957.82
2023-01-19T11:02:57.073Z,101956.67
2023-01-19T11:05:28.371Z,101958.67
2023-01-19T11:07:39.062Z,101961.65
2023-01-19T11:09:49.598Z,101963.55
2023-01-19T11:11:59.919Z,101960.61
2023-01-19T11:14:14.495Z,101955.83
2023-01-19T11:16:27.789Z,101955.13
2023-01-19T11:18:39.550Z,101959.49
2023-01-19T11:20:55.243Z,101965.38
2023-01-19T11:23:21.064Z,101972.81
2023-01-19T11:25:35.292Z,101974.84
2023-01-19T11:27:53.926Z,101977.67
2023-01-19T11:30:10.881Z,101981.60
2023-01-19T11:32:29.323Z,101982.08
2023-01-19T11:34:40.179Z,101983.95
2023-01-19T11:37:00.739Z,101984.55
2023-01-19T11:39:25.774Z,101983.70
2023-01-19T11:41:39.035Z,101983.00
2023-01-19T11:43:51.054Z,101991.72
2023-01-19T11:46:01.621Z,101990.42
2023-01-19T11:48:20.608Z,101996.63
2023-01-19T11:50:35.182Z,101995.77
2023-01-19T11:52:47.976Z,102003.10
2023-01-19T11:55:03.379Z,102000.61
2023-01-19T11:57:18.627Z,102006.77
2023-01-19T11:59:28.459Z,102012.63
2023-01-19T12:01:41.984Z,102015.61
2023-01-19T12:03:59.102Z,102012.85
2023-01-19T12:06:13.970Z,102014.32
2023-01-19T12:08:28.404Z,102018.34
2023-01-19T12:10:43.993Z,102020.95
2023-01-19T12:12:55.407Z,102027.09
2023-01-19T12:15:10.865Z,102026.87
2023-01-19T12:17:26.744Z,102027.48
2023-01-19T12:19:44.975Z,102026.13
2023-01-19T12:21:55.318Z,102030.90
2023-01-19T12:24:19.054Z,102032.80
2023-01-19T12:26:35.712Z,102036.88
2023-01-19T12:28:49.138Z,102044.69
2023-01-19T12:31:00.056Z,102043.52
2023-01-19T12:33:37.919Z,102041.91
2023-01-19T12:36:02.759Z,102046.02
2023-01-19T12:38:40.127Z,102048.75
2023-01-19T12:40:50.348Z,102047.33
2023-01-19T12:43:05.749Z,102049.77
2023-01-19T12:45:23.412Z,102049.67
2023-01-19T12:47:33.527Z,102053.97
2023-01-19T12:49:47.875Z,102058.77
2023-01-19T12:52:13.372Z,102059.13
2023-01-19T12:54:30.564Z,102063.80
2023-01-19T12:56:41.142Z,102071.34
2023-01-19T12:58:53.435Z,102072.56
2023-01-19T13:01:16.935Z,102079.43
2023-01-19T13:03:47.742Z,102082.02
2023-01-19T13:05:58.760Z,102082.45
2023-01-19T13:08:22.695Z,102080.92
2023-01-19T13:11:20.062Z,102090.44
2023-01-19T13:13:32.153Z,102094.42
2023-01-19T13:15:42.090Z,102096.20
2023-01-19T13:17:54.727Z,102097.48
2023-01-19T13:20:27.945Z,102104.11
2023-01-19T13:23:14.108Z,102104.91
2023-01-19T13:25:36.353Z,102109.02
2023-01-19T13:27:48.008Z,102117.23
2023-01-19T13:29:59.436Z,102121.89
2023-01-19T13:32:16.287Z,102123.36
2023-01-19T13:34:29.423Z,102130.20
2023-01-19T13:36:42.595Z,102134.06
2023-01-19T13:38:53.534Z,102135.96
2023-01-19T13:41:05.421Z,102133.48
2023-01-19T13:43:20.893Z,102141.95
2023-01-19T13:45:34.977Z,102143.31
2023-01-19T13:47:49.370Z,102147.88
2023-01-19T13:50:02.992Z,102147.72
2023-01-19T13:52:14.316Z,102152.98
2023-01-19T13:54:26.395Z,102155.83
2023-01-19T13:56:36.236Z,102160.95
2023-01-19T13:58:46.572Z,102163.99
2023-01-19T14:00:56.805Z,102166.50
2023-01-19T14:03:21.824Z,102171.94
2023-01-19T14:05:33.983Z,102182.08
2023-01-19T14:07:44.146Z,102186.27
2023-01-19T14:10:05.507Z,102190.98
2023-01-19T14:12:20.417Z,102193.27
2023-01-19T14:14:31.760Z,102197.88
2023-01-19T14:16:41.894Z,102203.20
2023-01-19T14:19:05.075Z,102206.63
2023-01-19T14:21:16.764Z,102204.41
2023-01-19T14:23:47.360Z,102202.45
2023-01-19T14:25:57.929Z,102199.15
2023-01-19T14:28:41.046Z,102198.00
2023-01-19T14:31:00.182Z,102197.14
2023-01-19T14:33:14.959Z,102199.25
2023-01-19T14:35:30.469Z,102200.61
2023-01-19T14:37:48.660Z,102197.02
2023-01-19T14:40:04.969Z,102199.36
2023-01-19T14:42:22.440Z,102199.16
2023-01-19T14:44:35.836Z,102204.05
2023-01-19T14:46:51.069Z,102212.80
2023-01-19T14:49:05.625Z,102216.06
2023-01-19T14:51:24.060Z,102214.61
2023-01-19T14:53:39.118Z,102215.31
2023-01-19T14:55:52.745Z,102219.11
2023-01-19T14:58:02.719Z,102226.23
2023-01-19T15:00:18.136Z,102227.91
2023-01-19T15:02:28.234Z,102234.27
2023-01-19T15:04:38.536Z,102234.33
2023-01-19T15:06:48.834Z,102238.61
2023-01-19T15:08:59.744Z,102242.48
2023-01-19T15:11:15.086Z,102248.54
2023-01-19T15:13:27.585Z,102254.08
2023-01-19T15:15:38.574Z,102256.14
2023-01-19T15:17:48.789Z,102259.67
2023-01-19T15:19:59.054Z,102259.56
2023-01-19T15:22:15.259Z,102259.73
2023-01-19T15:24:25.023Z,102262.12
2023-01-19T15:26:35.008Z,102260.16
2023-01-19T15:28:44.826Z,102260.92
2023-01-19T15:30:55.373Z,102263.70
2023-01-19T15:33:05.470Z,102272.00
2023-01-19T15:35:19.817Z,102275.86
2023-01-19T15:37:29.778Z,102278.30
2023-01-19T15:39:40.113Z,102280.04
2023-01-19T15:41:49.901Z,102281.56
2023-01-19T15:44:00.146Z,102280.31
2023-01-19T15:46:13.110Z,102286.17
2023-01-19T15:48:23.766Z,102288.94
2023-01-19T15:50:38.014Z,102287.48
2023-01-19T15:52:48.122Z,102287.30
2023-01-19T15:54:57.927Z,102293.87
2023-01-19T15:57:10.238Z,102295.04
2023-01-19T15:59:20.097Z,102292.27
2023-01-19T16:01:31.864Z,102298.61
2023-01-19T16:03:42.002Z,102302.90
2023-01-19T16:05:51.900Z,102303.22
2023-01-19T16:08:02.029Z,102303.98
2023-01-19T16:10:13.297Z,102307.55
2023-01-19T16:12:23.110Z,102308.77
2023-01-19T16:14:33.097Z,102306.76
2023-01-19T16:16:45.454Z,102309.30
2023-01-19T16:18:55.700Z,102315.11
2023-01-19T16:21:05.430Z,102317.17
2023-01-19T16:23:15.754Z,102321.30
2023-01-19T16:25:26.545Z,102321.21
2023-01-19T16:27:36.263Z,102328.10
2023-01-19T16:29:46.204Z,102330.11
2023-01-19T16:31:56.013Z,102328.95
2023-01-19T16:34:06.247Z,102332.21
2023-01-19T16:36:30.779Z,102331.30
2023-01-19T16:38:40.858Z,102335.36
2023-01-19T16:40:50.640Z,102340.05
2023-01-19T16:43:03.343Z,102345.75
2023-01-19T16:45:14.011Z,102342.38
2023-01-19T16:47:24.316Z,102342.92
2023-01-19T16:49:34.996Z,102345.04
2023-01-19T16:51:45.342Z,102343.89
2023-01-19T16:53:55.428Z,102344.60
2023-01-19T16:56:08.798Z,102340.70
2023-01-19T16:58:18.660Z,102340.55
2023-01-19T17:00:28.677Z,102342.44
2023-01-19T17:02:38.595Z,102344.82
2023-01-19T17:04:48.604Z,102345.52
2023-01-19T17:06:58.860Z,102351.60
2023-01-19T17:09:09.949Z,102351.52
2023-01-19T17:11:21.253Z,102355.25
2023-01-19T17:13:32.051Z,102364.81
2023-01-19T17:15:41.994Z,102368.72
2023-01-19T17:17:51.887Z,102371.33
2023-01-19T17:20:02.265Z,102374.31
2023-01-19T17:22:12.548Z,102376.98
2023-01-19T17:24:22.705Z,102378.38
2023-01-19T17:26:32.387Z,102383.17
2023-01-19T17:28:42.403Z,102390.45
2023-01-19T17:30:52.534Z,102393.29
2023-01-19T17:33:02.455Z,102395.09
2023-01-19T17:35:13.012Z,102398.14
2023-01-19T17:37:22.875Z,102400.60
2023-01-19T17:39:33.184Z,102409.30
2023-01-19T17:41:43.281Z,102415.88
2023-01-19T17:43:53.926Z,102414.84
2023-01-19T17:46:05.670Z,102413.65
2023-01-19T17:48:15.935Z,102415.27
2023-01-19T17:50:26.271Z,102413.43
2023-01-19T17:52:36.281Z,102417.12
2023-01-19T17:54:46.286Z,102422.17
2023-01-19T17:56:56.567Z,102424.83
2023-01-19T17:59:08.449Z,102427.45
2023-01-19T18:01:19.345Z,102427.02
2023-01-19T18:03:29.086Z,102431.52
2023-01-19T18:05:39.474Z,102437.72
2023-01-19T18:07:49.796Z,102435.40
2023-01-19T18:10:01.056Z,102443.61
2023-01-19T18:12:11.677Z,102449.55
2023-01-19T18:14:21.479Z,102451.89
2023-01-19T18:16:32.871Z,102452.92
2023-01-19T18:18:42.943Z,102458.35
2023-01-19T18:20:53.239Z,102460.46
2023-01-19T18:23:03.174Z,102461.17
2023-01-19T18:25:13.445Z,102458.40
2023-01-19T18:27:23.480Z,102462.96
2023-01-19T18:29:33.458Z,102460.90
2023-01-19T18:31:43.660Z,102466.11
2023-01-19T18:33:53.826Z,102473.23
2023-01-19T18:36:03.941Z,102471.98
2023-01-19T18:38:13.878Z,102478.07
2023-01-19T18:40:23.661Z,102481.86
2023-01-19T18:42:33.866Z,102487.98
2023-01-19T18:44:43.763Z,102491.13
2023-01-19T18:46:55.094Z,102493.73
2023-01-19T18:49:04.871Z,102497.20
2023-01-19T18:51:16.171Z,102503.94
2023-01-19T18:53:26.124Z,102509.98
2023-01-19T18:55:36.769Z,102510.52
2023-01-19T18:57:46.731Z,102507.02
2023-01-19T18:59:59.798Z,102507.88
2023-01-19T19:02:12.687Z,102510.58
2023-01-19T19:04:22.677Z,102513.41
2023-01-19T19:06:32.864Z,102514.61
2023-01-19T19:08:44.488Z,102514.98
2023-01-19T19:10:54.386Z,102519.82
2023-01-19T19:13:04.774Z,102526.08
2023-01-19T19:15:16.053Z,102529.05
2023-01-19T19:17:25.881Z,102526.49
2023-01-19T19:19:36.291Z,102523.84
2023-01-19T19:21:46.920Z,102530.14
2023-01-19T19:23:57.706Z,102527.42
2023-01-19T19:26:09.966Z,102524.05
2023-01-19T19:28:19.928Z,102516.73
2023-01-19T19:30:30.815Z,102519.98
2023-01-19T19:32:40.774Z,102521.66
2023-01-19T19:34:53.123Z,102519.70
2023-01-19T19:37:03.294Z,102523.40
2023-01-19T19:39:13.342Z,102530.03
2023-01-19T19:41:25.448Z,102529.27
2023-01-19T19:43:38.108Z,102534.82
2023-01-19T19:45:57.424Z,102540.91
2023-01-19T19:48:07.579Z,102542.27
2023-01-19T19:50:17.884Z,102541.94
2023-01-19T19:52:29.170Z,102539.61
2023-01-19T19:54:39.644Z,102541.29
2023-01-19T19:56:52.337Z,102539.66
2023-01-19T19:59:02.944Z,102534.55
2023-01-19T20:01:16.775Z,102546.61
2023-01-19T20:03:30.116Z,102546.70
2023-01-19T20:05:41.451Z,102548.86
2023-01-19T20:07:51.737Z,102551.73
2023-01-19T20:10:01.777Z,102553.91
2023-01-19T20:12:11.699Z,102555.30
2023-01-19T20:14:22.805Z,102556.70
2023-01-19T20:16:32.810Z,102558.77
2023-01-19T20:18:43.959Z,102559.87
2023-01-19T20:20:54.611Z,102556.85
2023-01-19T20:23:05.112Z,102550.75
2023-01-19T20:25:15.401Z,102552.83
2023-01-19T20:27:25.118Z,102553.61
2023-01-19T20:29:35.371Z,102558.45
2023-01-19T20:31:49.131Z,102559.81
2023-01-19T20:34:02.322Z,102558.12
2023-01-19T20:36:12.728Z,102555.86
2023-01-19T20:38:22.235Z,102546.46
2023-01-19T20:40:32.001Z,102547.15
2023-01-19T20:42:41.814Z,102555.61
2023-01-19T20:44:51.459Z,102555.21
2023-01-19T20:47:05.826Z,102555.59
2023-01-19T20:49:16.442Z,102549.67
2023-01-19T20:51:27.279Z,102550.54
2023-01-19T20:53:38.572Z,102551.57
2023-01-19T20:55:48.395Z,102551.95
2023-01-19T20:57:58.212Z,102554.82
2023-01-19T21:00:09.627Z,102557.52
2023-01-19T21:02:19.591Z,102565.88
2023-01-19T21:04:29.540Z,102562.84
2023-01-19T21:06:39.632Z,102563.05
2023-01-19T21:08:51.179Z,102566.91
2023-01-19T21:11:01.584Z,102566.72
2023-01-19T21:13:11.345Z,102566.13
2023-01-19T21:15:21.309Z,102568.46
2023-01-19T21:17:34.002Z,102565.29
2023-01-19T21:19:43.975Z,102565.48
2023-01-19T21:21:55.541Z,102569.88
2023-01-19T21:24:06.825Z,102568.03
2023-01-19T21:26:16.968Z,102567.69
2023-01-19T21:28:27.199Z,102568.81
2023-01-19T21:30:37.864Z,102571.47
2023-01-19T21:32:47.547Z,102570.10
2023-01-19T21:34:57.333Z,102568.33
2023-01-19T21:37:07.603Z,102568.60
2023-01-19T21:39:17.580Z,102571.34
2023-01-19T21:41:27.167Z,102575.83
2023-01-19T21:43:37.392Z,102575.55
2023-01-19T21:45:47.876Z,102571.42
2023-01-19T21:47:57.830Z,102573.59
2023-01-19T21:50:08.508Z,102573.48
2023-01-19T21:52:18.413Z,102575.55
2023-01-19T21:54:28.702Z,102582.35
2023-01-19T21:56:39.618Z,102585.07
2023-01-19T21:58:50.953Z,102584.80
2023-01-19T22:01:11.328Z,102583.65
2023-01-19T22:03:21.520Z,102589.16
2023-01-19T22:05:31.874Z,102587.52
2023-01-19T22:07:42.141Z,102587.25
2023-01-19T22:09:52.130Z,102588.93
2023-01-19T22:12:02.020Z,102588.23
2023-01-19T22:14:13.880Z,102591.38
2023-01-19T22:16:25.416Z,102593.45
2023-01-19T22:18:36.120Z,102588.39
2023-01-19T22:20:45.968Z,102589.31
2023-01-19T22:22:56.075Z,102583.55
2023-01-19T22:25:06.412Z,102583.00
2023-01-19T22:27:16.646Z,102585.98
2023-01-19T22:29:26.418Z,102587.20
2023-01-19T22:31:37.357Z,102586.55
2023-01-19T22:33:49.450Z,102588.22
2023-01-19T22:36:10.147Z,102586.98
2023-01-19T22:38:20.203Z,102587.68
2023-01-19T22:40:30.060Z,102590.34
2023-01-19T22:42:39.986Z,102592.20
2023-01-19T22:44:50.143Z,102594.86
2023-01-19T22:47:00.196Z,102595.29
2023-01-19T22:49:10.885Z,102604.25
2023-01-19T22:51:21.238Z,102604.95
2023-01-19T22:53:31.894Z,102610.11
2023-01-19T22:55:43.364Z,102614.27
2023-01-19T22:57:53.430Z,102612.15
2023-01-19T23:00:04.910Z,102613.73
2023-01-19T23:02:15.069Z,102619.49
2023-01-19T23:04:24.942Z,102619.38
2023-01-19T23:06:37.659Z,102624.55
2023-01-19T23:08:48.928Z,102626.55
2023-01-19T23:10:58.936Z,102622.38
2023-01-19T23:13:08.392Z,102624.64
2023-01-19T23:15:18.324Z,102622.78
2023-01-19T23:17:28.785Z,102619.34
2023-01-19T23:19:38.851Z,102621.56
2023-01-19T23:21:52.157Z,102626.14
2023-01-19T23:24:03.107Z,102624.54
2023-01-19T23:26:16.137Z,102632.59
2023-01-19T23:28:26.503Z,102634.85
2023-01-19T23:30:35.720Z,102633.98
2023-01-19T23:32:51.223Z,102634.57
2023-01-19T23:35:01.194Z,102635.71
2023-01-19T23:37:11.178Z,102635.77
2023-01-19T23:39:22.549Z,102636.41
2023-01-19T23:41:35.110Z,102634.39
2023-01-19T23:43:45.786Z,102634.08
2023-01-19T23:45:55.726Z,102638.98
2023-01-19T23:48:07.092Z,102634.73
2023-01-19T23:50:17.694Z,102638.85
2023-01-19T23:52:27.486Z,102641.11
2023-01-19T23:54:39.506Z,102640.67
2023-01-19T23:56:50.310Z,102645.19
2023-01-19T23:59:03.611Z,102647.85
